CheckWX is a tool to help pilots better visualize weather data.  It is not intended as a substitute for an official pre-flight weather briefing.

07:12:38 UTC

VOCI TAF
Cochin International Airport
Cochin, India
TAF VOCI 200500Z 2006/2112 27005KT 4000 HZ DZ SCT015 BKN080 TEMPO 2008/2012 28010KT 3000 TSRA RA SCT015 FEW025CB BKN080 BECMG 2015/2017 09005KT 4000 RA BR TEMPO 2022/2102 2500 TSRA RA BECMG 2104/2106 27005KT 5000 HZ DZ SCT015 BKN080 TEMPO 2108/2112 28010KT 3000 SHRA RA SCT010 FEW025CB BKN080

Jun-20@
06:00 UTC

Jun-20 @ 06:00 UTC

Jun-20@
15:00 UTC

Jun-20 @ 15:00 UTC

TAF VOCI 200500Z 2006/2112 27005KT 4000 HZ DZ SCT015 BKN080
Wind
  • 270° at 5 KTS
Conditions
Haze, Drizzle
Cloud Levels
  • Scattered at 1,500' AGL
  • Broken at 8,000' AGL

Jun-20@
08:00 UTC

Jun-20 @ 08:00 UTC

Jun-20@
12:00 UTC

Jun-20 @ 12:00 UTC

TEMPO 2008/2012 28010KT 3000 TSRA RA SCT015 FEW025CB BKN080

Temporary

Temporary Changes expected for less than half the time period

Wind
  • 280° at 10 KTS
Conditions
Thunderstorm, Rain, Rain
Cloud Levels
  • Scattered at 1,500' AGL
  • Few at 2,500' AGL
  • Broken at 8,000' AGL

Jun-20@
15:00 UTC

Jun-20 @ 15:00 UTC

Jun-21@
04:00 UTC

Jun-21 @ 04:00 UTC

BECMG 2015/2017 09005KT 4000 RA BR

Becoming

Becoming Conditions expected by Thu, Jun 20, 2019 @ 17:00 UTC

Wind
  • 090° at 5 KTS
Conditions
Rain, Mist
Cloud Levels
  • Scattered at 1,500' AGL
  • Broken at 8,000' AGL

Jun-20@
22:00 UTC

Jun-20 @ 22:00 UTC

Jun-21@
02:00 UTC

Jun-21 @ 02:00 UTC

TEMPO 2022/2102 2500 TSRA RA

Temporary

Temporary Changes expected for less than half the time period

Conditions
Thunderstorm, Rain, Rain

Jun-21@
04:00 UTC

Jun-21 @ 04:00 UTC

Jun-21@
12:00 UTC

Jun-21 @ 12:00 UTC

BECMG 2104/2106 27005KT 5000 HZ DZ SCT015 BKN080

Becoming

Becoming Conditions expected by Fri, Jun 21, 2019 @ 06:00 UTC

Wind
  • 270° at 5 KTS
Conditions
Haze, Drizzle
Cloud Levels
  • Scattered at 1,500' AGL
  • Broken at 8,000' AGL

Jun-21@
08:00 UTC

Jun-21 @ 08:00 UTC

Jun-21@
12:00 UTC

Jun-21 @ 12:00 UTC

TEMPO 2108/2112 28010KT 3000 SHRA RA SCT010 FEW025CB BKN080

Temporary

Temporary Changes expected for less than half the time period

Wind
  • 280° at 10 KTS
Conditions
Rain, Rain
Cloud Levels
  • Scattered at 1,000' AGL
  • Few at 2,500' AGL
  • Broken at 8,000' AGL